Time;durP1;ratioP1;P1;durP2;ratioP2;P2;SDS_P1;SDS_P2;PMS_P1;PMS_P2;Temp;Humidity;BMP_temperature;BMP_pressure;BME280_temperature;BME280_humidity;BME280_pressure;Samples;Min_cycle;Max_cycle;Signal;HPM_P1;HPM_P2
2023/07/19 00:01:24;;;;;;;4.20;2.80;;;;;;;22.00;47.15;98554.06;5131720;27;41546;-83
2023/07/19 00:03:51;;;;;;;5.07;2.37;;;;;;;22.01;46.38;98557.59;5113661;27;38770;-82
2023/07/19 00:06:19;;;;;;;3.47;1.97;;;;;;;21.99;46.20;98567.72;5114310;27;41036;-81
2023/07/19 00:08:48;;;;;;;3.50;2.20;;;;;;;21.96;45.99;98560.78;5114617;27;41303;-82
2023/07/19 00:11:15;;;;;;;2.80;2.60;;;;;;;22.00;46.30;98566.72;5132500;27;41425;-81
2023/07/19 00:13:43;;;;;;;2.10;1.90;;;;;;;21.95;45.88;98563.66;5132858;27;40011;-82
2023/07/19 00:16:10;;;;;;;2.10;1.90;;;;;;;21.87;45.97;98567.25;5132202;27;43047;-81
2023/07/19 00:18:38;;;;;;;4.57;2.20;;;;;;;21.80;46.50;98559.00;5132894;27;42752;-81
2023/07/19 00:21:06;;;;;;;3.10;2.53;;;;;;;21.77;46.38;98564.72;5132167;27;42360;-81
2023/07/19 00:23:33;;;;;;;2.03;1.90;;;;;;;21.56;46.23;98545.59;5115534;27;38860;-82
2023/07/19 00:26:02;;;;;;;4.03;2.60;;;;;;;21.72;46.34;98575.22;5132282;27;40824;-81
2023/07/19 00:28:30;;;;;;;2.53;2.10;;;;;;;21.72;46.53;98577.91;5132441;27;42678;-82
2023/07/19 00:31:01;;;;;;;3.50;2.10;;;;;;;21.74;46.52;98573.19;5132389;27;42375;-81
2023/07/19 00:33:30;;;;;;;4.07;2.47;;;;;;;21.70;46.49;98565.59;5129508;27;39675;-80
2023/07/19 00:35:57;;;;;;;3.00;2.40;;;;;;;21.70;46.75;98568.31;5132307;27;41688;-83
2023/07/19 00:38:25;;;;;;;3.10;2.13;;;;;;;21.60;46.61;98554.19;5114846;27;42256;-82
2023/07/19 00:40:53;;;;;;;3.00;2.10;;;;;;;21.65;46.63;98570.66;5130668;27;41264;-82
2023/07/19 00:43:22;;;;;;;2.70;2.23;;;;;;;21.64;46.49;98560.91;5131342;27;40968;-81
2023/07/19 00:45:54;;;;;;;2.90;2.53;;;;;;;21.53;46.51;98543.25;5132339;27;41680;-82
2023/07/19 00:48:22;;;;;;;3.27;1.90;;;;;;;21.64;46.49;98569.81;5114390;27;41638;-82
2023/07/19 00:50:51;;;;;;;3.00;2.20;;;;;;;21.55;46.28;98557.41;5130481;27;42212;-81
2023/07/19 00:53:20;;;;;;;2.37;2.03;;;;;;;21.59;46.21;98563.28;5114288;27;39065;-82
2023/07/19 00:55:50;;;;;;;2.63;1.97;;;;;;;21.58;46.07;98562.44;5113730;27;41874;-81
2023/07/19 00:58:19;;;;;;;2.20;2.00;;;;;;;21.57;45.44;98570.69;5113876;27;42993;-82
2023/07/19 01:00:48;;;;;;;2.83;2.03;;;;;;;21.46;45.71;98563.81;5113797;27;42248;-83
2023/07/19 01:03:16;;;;;;;1.93;1.60;;;;;;;21.45;45.52;98573.75;5113864;27;39116;-82
2023/07/19 01:05:44;;;;;;;2.50;2.03;;;;;;;21.46;45.90;98590.75;5131022;27;41754;-83
2023/07/19 01:08:12;;;;;;;3.07;2.17;;;;;;;21.04;46.07;98537.91;5113681;27;42791;-80
2023/07/19 01:10:39;;;;;;;3.00;2.00;;;;;;;21.19;46.60;98567.72;5131438;27;42283;-81
2023/07/19 01:13:08;;;;;;;2.20;2.00;;;;;;;21.07;46.99;98564.50;5132292;27;40286;-81
2023/07/19 01:15:37;;;;;;;2.93;2.30;;;;;;;21.07;47.09;98572.59;5116301;27;41772;-81
2023/07/19 01:18:06;;;;;;;2.40;2.10;;;;;;;21.00;47.94;98568.91;5135702;27;42780;-81
2023/07/19 01:20:34;;;;;;;2.93;2.23;;;;;;;20.94;47.96;98569.56;5118395;27;41656;-82
2023/07/19 01:23:04;;;;;;;2.20;1.97;;;;;;;20.89;47.61;98571.09;5135650;27;40797;-81
2023/07/19 01:25:32;;;;;;;2.37;1.77;;;;;;;20.73;47.77;98556.63;5118315;27;40591;-81
2023/07/19 01:28:00;;;;;;;2.87;1.83;;;;;;;20.77;47.86;98567.91;5135272;27;44979;-81
2023/07/19 01:30:27;;;;;;;2.37;2.00;;;;;;;20.74;47.75;98560.16;5118121;27;41966;-83
2023/07/19 01:32:55;;;;;;;2.20;2.00;;;;;;;20.64;47.44;98557.63;5118211;27;40338;-80
2023/07/19 01:35:23;;;;;;;2.10;1.90;;;;;;;20.60;47.47;98555.44;5135793;27;41736;-82
2023/07/19 01:37:51;;;;;;;2.13;1.93;;;;;;;20.64;47.43;98573.78;5134848;27;42931;-81
2023/07/19 01:40:20;;;;;;;2.27;1.90;;;;;;;20.59;47.68;98567.19;5133221;27;42118;-81
2023/07/19 01:42:48;;;;;;;3.70;2.10;;;;;;;20.54;48.47;98573.06;5133710;27;40708;-82
2023/07/19 01:45:16;;;;;;;4.23;1.93;;;;;;;20.48;48.31;98567.50;5134195;27;42691;-83
2023/07/19 01:47:43;;;;;;;3.07;2.10;;;;;;;20.20;48.54;98542.69;5116600;27;41764;-83
2023/07/19 01:50:11;;;;;;;2.10;1.90;;;;;;;20.33;48.87;98560.06;5116243;27;42189;-81
2023/07/19 01:52:39;;;;;;;2.17;1.97;;;;;;;20.27;48.87;98560.72;5116487;27;38812;-80
2023/07/19 01:55:08;;;;;;;2.20;1.97;;;;;;;20.21;48.97;98566.75;5133334;27;40371;-82
2023/07/19 01:57:37;;;;;;;2.70;2.03;;;;;;;20.17;49.02;98559.16;5116579;27;41691;-82
2023/07/19 02:00:05;;;;;;;2.87;2.27;;;;;;;20.06;49.10;98546.88;5133536;27;42398;-81
2023/07/19 02:02:44;;;;;;;2.70;2.20;;;;;;;20.03;48.85;98568.69;5135577;27;41034;-82
2023/07/19 02:05:11;;;;;;;2.23;1.97;;;;;;;19.87;49.64;98539.09;5135142;27;41963;-82
2023/07/19 02:07:39;;;;;;;3.57;2.30;;;;;;;19.91;49.46;98556.53;5117515;27;43149;-81
2023/07/19 02:10:08;;;;;;;2.80;1.70;;;;;;;19.86;49.75;98553.53;5135796;27;42936;-81
2023/07/19 02:12:37;;;;;;;2.33;2.13;;;;;;;19.81;49.88;98555.84;5135019;27;40035;-82
2023/07/19 02:15:06;;;;;;;2.33;2.13;;;;;;;19.75;49.74;98553.81;5143897;27;42697;-81
2023/07/19 02:17:33;;;;;;;4.33;2.70;;;;;;;19.73;50.28;98553.97;5122023;27;42916;-81
2023/07/19 02:20:01;;;;;;;2.20;1.80;;;;;;;19.69;50.32;98550.75;5135370;27;42581;-82
2023/07/19 02:22:29;;;;;;;2.13;1.93;;;;;;;19.65;50.25;98549.41;5117932;27;40780;-81
2023/07/19 02:24:57;;;;;;;2.63;2.27;;;;;;;19.52;50.36;98530.19;5117643;27;40762;-82
2023/07/19 02:27:24;;;;;;;2.80;1.97;;;;;;;19.58;50.45;98548.34;5132862;27;41810;-82
2023/07/19 02:29:53;;;;;;;2.27;1.90;;;;;;;19.58;50.44;98547.50;5116870;27;42517;-81
2023/07/19 02:32:21;;;;;;;3.77;2.43;;;;;;;19.57;50.36;98535.91;5117465;27;38827;-82
2023/07/19 02:34:49;;;;;;;2.20;1.90;;;;;;;19.54;50.61;98546.97;5116884;27;41760;-79
2023/07/19 02:37:16;;;;;;;2.33;2.13;;;;;;;19.52;50.59;98540.94;5116981;27;41801;-80
2023/07/19 02:39:44;;;;;;;2.77;2.47;;;;;;;19.49;50.51;98543.09;5132341;27;43302;-80
2023/07/19 02:42:12;;;;;;;2.27;2.07;;;;;;;19.36;50.51;98528.22;5133727;27;40151;-81
2023/07/19 02:44:40;;;;;;;3.40;2.07;;;;;;;19.43;50.62;98535.63;5115493;27;40938;-81
2023/07/19 02:47:12;;;;;;;2.70;2.03;;;;;;;19.35;50.91;98525.69;5115523;27;42766;-81
2023/07/19 02:49:40;;;;;;;2.53;2.33;;;;;;;19.38;51.03;98536.13;5116279;27;40980;-81
2023/07/19 02:52:09;;;;;;;2.57;2.10;;;;;;;19.40;51.12;98534.13;5115507;27;39096;-81
2023/07/19 02:54:36;;;;;;;2.93;2.20;;;;;;;19.39;51.04;98537.81;5132823;27;41743;-82
2023/07/19 02:57:04;;;;;;;2.63;2.27;;;;;;;19.35;51.62;98539.97;5115180;27;41701;-80
2023/07/19 02:59:32;;;;;;;2.63;2.20;;;;;;;19.27;52.00;98534.56;5132709;27;42387;-82
2023/07/19 03:02:00;;;;;;;2.73;2.10;;;;;;;19.13;52.15;98516.34;5115562;27;38570;-83
2023/07/19 03:04:29;;;;;;;2.40;2.20;;;;;;;18.81;52.44;98484.75;5133961;27;42549;-82
2023/07/19 03:06:57;;;;;;;2.60;2.20;;;;;;;19.09;52.77;98531.06;5115061;27;41788;-82
2023/07/19 03:09:25;;;;;;;2.73;2.33;;;;;;;19.01;52.71;98537.25;5114934;27;42156;-80
2023/07/19 03:11:53;;;;;;;2.23;2.03;;;;;;;18.97;52.51;98533.16;5132377;27;41915;-81
2023/07/19 03:14:20;;;;;;;2.33;2.00;;;;;;;18.64;53.06;98485.63;5115157;27;40712;-83
2023/07/19 03:16:48;;;;;;;3.30;2.10;;;;;;;18.90;52.96;98537.50;5115154;27;41625;-83
2023/07/19 03:19:15;;;;;;;2.50;1.77;;;;;;;18.89;53.28;98530.44;5132826;27;42242;-81
2023/07/19 03:21:45;;;;;;;3.40;2.03;;;;;;;18.86;53.22;98536.09;5114961;27;39890;-82
2023/07/19 03:24:13;;;;;;;2.33;2.13;;;;;;;18.81;53.35;98533.03;5132332;27;41603;-81
2023/07/19 03:26:41;;;;;;;2.80;2.13;;;;;;;18.77;53.59;98536.22;5132326;27;42690;-81
2023/07/19 03:29:08;;;;;;;3.47;2.13;;;;;;;18.73;54.14;98540.19;5132300;27;42195;-82
2023/07/19 03:31:36;;;;;;;3.83;1.83;;;;;;;18.69;54.73;98545.00;5115507;27;39991;-82
2023/07/19 03:34:04;;;;;;;2.80;2.60;;;;;;;18.68;55.23;98548.69;5115730;27;40247;-81
2023/07/19 03:36:32;;;;;;;3.17;2.40;;;;;;;18.70;54.76;98552.06;5133204;27;42777;-82
2023/07/19 03:39:03;;;;;;;2.50;2.27;;;;;;;18.61;54.59;98526.19;5116181;27;41943;-82
2023/07/19 03:41:32;;;;;;;3.80;2.40;;;;;;;18.76;54.76;98545.25;5115852;27;39014;-81
2023/07/19 03:43:59;;;;;;;2.43;2.10;;;;;;;18.78;54.10;98560.19;5133475;27;41827;-81
2023/07/19 03:46:27;;;;;;;3.00;2.70;;;;;;;18.83;54.39;98557.03;5115769;27;41695;-82
2023/07/19 03:48:55;;;;;;;2.70;2.50;;;;;;;18.62;53.92;98530.53;5116098;27;41571;-81
2023/07/19 03:51:23;;;;;;;2.63;2.43;;;;;;;18.75;54.10;98552.44;5115327;27;39142;-82
2023/07/19 03:53:51;;;;;;;2.47;1.97;;;;;;;18.81;54.44;98564.38;5133282;27;41680;-82
2023/07/19 03:56:20;;;;;;;3.93;2.67;;;;;;;18.71;54.15;98553.75;5115431;27;42174;-83
2023/07/19 03:58:49;;;;;;;2.43;2.23;;;;;;;18.85;54.45;98560.41;5115535;27;41141;-81
2023/07/19 04:01:17;;;;;;;2.93;2.60;;;;;;;18.89;55.25;98561.78;5114061;27;39760;-83
2023/07/19 04:03:45;;;;;;;3.10;2.60;;;;;;;18.95;55.16;98562.00;5114534;27;41714;-83
2023/07/19 04:06:13;;;;;;;4.13;2.47;;;;;;;18.97;55.55;98560.00;5131358;27;43796;-80
2023/07/19 04:08:41;;;;;;;4.53;3.23;;;;;;;19.08;55.30;98569.66;5114556;27;42129;-82
2023/07/19 04:11:11;;;;;;;3.10;2.80;;;;;;;19.14;55.45;98568.19;5115375;27;38781;-81
2023/07/19 04:13:40;;;;;;;4.10;2.80;;;;;;;19.21;54.90;98562.03;5133003;27;41675;-80
2023/07/19 04:16:08;;;;;;;3.57;2.50;;;;;;;19.28;54.77;98559.56;5132197;27;41876;-82
2023/07/19 04:18:36;;;;;;;3.60;2.60;;;;;;;19.33;55.38;98554.56;5115604;27;41096;-80
2023/07/19 04:21:04;;;;;;;3.97;3.07;;;;;;;19.37;55.11;98562.13;5132196;27;39944;-79
2023/07/19 04:23:31;;;;;;;4.13;2.43;;;;;;;19.39;55.14;98562.00;5132321;27;41796;-81
2023/07/19 04:26:01;;;;;;;3.93;2.63;;;;;;;19.43;55.69;98563.34;5115009;27;41984;-79
2023/07/19 04:28:31;;;;;;;4.97;2.57;;;;;;;19.45;55.60;98557.81;5115283;27;41063;-79
2023/07/19 04:31:01;;;;;;;2.93;2.23;;;;;;;19.44;55.57;98554.28;5132088;27;38906;-81
2023/07/19 04:33:28;;;;;;;2.77;2.50;;;;;;;19.39;55.64;98548.56;5115211;27;41132;-80
2023/07/19 04:35:56;;;;;;;3.50;2.70;;;;;;;19.41;55.32;98549.22;5131992;27;42726;-80
2023/07/19 04:38:24;;;;;;;2.97;2.60;;;;;;;19.42;55.75;98552.75;5114672;27;44057;-81
2023/07/19 04:40:52;;;;;;;2.67;2.30;;;;;;;19.35;55.63;98555.25;5130302;27;40992;-81
2023/07/19 04:43:21;;;;;;;3.47;2.90;;;;;;;19.31;55.79;98540.44;5114345;27;41141;-82
2023/07/19 04:45:55;;;;;;;2.77;2.50;;;;;;;19.40;55.85;98552.94;5113945;27;41766;-82
2023/07/19 04:48:24;;;;;;;2.73;2.47;;;;;;;19.41;55.92;98561.84;5113661;27;41239;-82
2023/07/19 04:50:53;;;;;;;5.63;2.70;;;;;;;19.35;56.47;98547.19;5115191;27;39974;-80
2023/07/19 04:53:21;;;;;;;3.53;2.33;;;;;;;19.44;56.21;98561.50;5135069;27;42449;-81
2023/07/19 04:55:52;;;;;;;3.37;2.33;;;;;;;19.52;56.41;98554.38;5134585;27;42746;-82
2023/07/19 04:58:22;;;;;;;2.80;2.60;;;;;;;19.60;56.87;98551.72;5117649;27;43599;-81
2023/07/19 05:00:50;;;;;;;3.77;2.83;;;;;;;19.66;56.75;98555.59;5134627;27;39838;-82
2023/07/19 05:03:18;;;;;;;3.67;2.40;;;;;;;19.68;56.51;98538.31;5117715;27;41876;-82
2023/07/19 05:05:49;;;;;;;3.23;2.90;;;;;;;19.85;56.50;98554.53;5116948;27;42940;-81
2023/07/19 05:08:18;;;;;;;2.57;2.37;;;;;;;19.98;56.08;98554.91;5131718;27;42487;-81
2023/07/19 05:10:45;;;;;;;3.00;2.70;;;;;;;20.08;55.97;98542.16;5134716;27;39684;-82
2023/07/19 05:13:14;;;;;;;3.70;2.50;;;;;;;20.31;56.02;98556.69;5134869;27;42688;-82
2023/07/19 05:15:41;;;;;;;3.17;2.50;;;;;;;20.39;55.54;98532.53;5117816;27;41790;-83
2023/07/19 05:18:13;;;;;;;3.30;2.97;;;;;;;20.77;55.86;98551.75;5118342;27;41369;-83
2023/07/19 05:20:41;;;;;;;5.93;3.30;;;;;;;20.92;55.52;98533.06;5118033;27;39970;-82
2023/07/19 05:23:11;;;;;;;3.87;3.20;;;;;;;21.06;55.05;98552.06;5136872;27;42725;-83
2023/07/19 05:25:39;;;;;;;3.37;2.77;;;;;;;21.14;54.68;98549.34;5117896;27;41767;-82
2023/07/19 05:28:07;;;;;;;4.20;3.00;;;;;;;21.21;55.02;98546.88;5118225;27;41114;-83
2023/07/19 05:30:35;;;;;;;5.07;3.10;;;;;;;21.32;54.70;98556.44;5135592;27;38914;-81
2023/07/19 05:33:02;;;;;;;5.30;3.20;;;;;;;21.47;54.68;98554.72;5135548;27;40330;-83
2023/07/19 05:35:31;;;;;;;4.43;2.97;;;;;;;21.49;54.64;98550.00;5135632;27;42716;-83
2023/07/19 05:37:59;;;;;;;3.83;2.70;;;;;;;21.51;54.34;98556.88;5134874;27;41344;-82
2023/07/19 05:40:28;;;;;;;3.60;2.60;;;;;;;21.62;54.46;98553.00;5141097;27;39931;-79
2023/07/19 05:42:56;;;;;;;3.57;2.70;;;;;;;21.75;53.79;98558.69;5148830;27;42161;-81
2023/07/19 05:45:24;;;;;;;5.10;3.27;;;;;;;21.88;53.36;98562.69;5124441;27;41319;-83
2023/07/19 05:47:51;;;;;;;3.47;3.03;;;;;;;21.94;52.78;98557.44;5134363;27;42324;-84
2023/07/19 05:50:19;;;;;;;4.30;2.60;;;;;;;22.08;52.60;98564.81;5133838;27;39660;-80
2023/07/19 05:52:46;;;;;;;3.37;2.60;;;;;;;22.15;52.72;98563.09;5133782;27;42706;-77
2023/07/19 05:55:15;;;;;;;3.27;2.33;;;;;;;22.19;52.00;98561.72;5116482;27;41663;-80
2023/07/19 05:57:44;;;;;;;3.97;2.70;;;;;;;22.32;51.44;98558.44;5116092;27;41567;-80
2023/07/19 06:00:24;;;;;;;3.33;2.77;;;;;;;22.44;51.37;98567.81;5133660;27;40792;-80
2023/07/19 06:02:52;;;;;;;5.63;3.17;;;;;;;22.44;50.79;98559.72;5132271;27;41766;-80
2023/07/19 06:05:20;;;;;;;5.07;2.57;;;;;;;22.65;50.29;98575.25;5116127;27;43381;-80
2023/07/19 06:07:48;;;;;;;3.03;2.60;;;;;;;22.64;49.90;98564.66;5134434;27;42414;-82
2023/07/19 06:10:16;;;;;;;3.43;2.53;;;;;;;22.83;49.73;98570.47;5134813;27;39878;-83
2023/07/19 06:12:46;;;;;;;3.03;2.43;;;;;;;23.00;49.53;98576.53;5109281;27;40998;-82
2023/07/19 06:15:14;;;;;;;3.47;2.60;;;;;;;23.17;49.45;98578.09;5116009;27;41668;-79
2023/07/19 06:17:42;;;;;;;3.97;2.40;;;;;;;23.27;49.02;98578.69;5132166;27;40811;-79
2023/07/19 06:20:11;;;;;;;4.27;2.50;;;;;;;23.36;48.22;98582.16;5131104;27;39034;-80
2023/07/19 06:22:39;;;;;;;6.07;2.93;;;;;;;23.49;47.74;98597.75;5132098;27;41800;-81
2023/07/19 06:25:07;;;;;;;2.97;2.40;;;;;;;23.29;47.64;98538.81;5132893;27;43601;-78
2023/07/19 06:27:35;;;;;;;2.97;2.67;;;;;;;23.71;47.40;98590.63;5114513;27;41095;-79
2023/07/19 06:30:05;;;;;;;3.27;2.50;;;;;;;23.77;47.09;98585.28;5132799;27;40845;-79
2023/07/19 06:32:34;;;;;;;3.80;2.30;;;;;;;23.95;46.94;98596.59;5132599;27;40719;-80
2023/07/19 06:35:01;;;;;;;5.93;3.00;;;;;;;24.07;46.48;98601.53;5116332;27;41684;-86
2023/07/19 06:37:29;;;;;;;3.07;2.77;;;;;;;24.18;46.79;98590.22;5115614;27;40998;-84
2023/07/19 06:39:57;;;;;;;6.10;2.60;;;;;;;24.36;46.88;98595.28;5133699;27;40053;-85
2023/07/19 06:42:25;;;;;;;2.90;2.60;;;;;;;24.63;46.75;98602.66;5116157;27;41758;-85
2023/07/19 06:44:53;;;;;;;4.23;2.70;;;;;;;24.81;45.91;98605.78;5116464;27;42156;-82
2023/07/19 06:47:22;;;;;;;3.37;2.40;;;;;;;25.00;45.08;98609.72;5116193;27;41123;-80
2023/07/19 06:49:50;;;;;;;5.27;3.20;;;;;;;25.16;44.96;98604.06;5133686;27;40009;-81
2023/07/19 06:52:18;;;;;;;4.60;2.90;;;;;;;25.26;44.39;98609.97;5132901;27;41226;-80
2023/07/19 06:54:45;;;;;;;5.43;2.90;;;;;;;25.37;45.00;98614.88;5133408;27;43080;-82
2023/07/19 06:57:13;;;;;;;3.77;2.70;;;;;;;25.46;44.29;98607.44;5115691;27;41304;-88
2023/07/19 06:59:42;;;;;;;7.13;2.77;;;;;;;25.56;43.19;98620.66;5116689;27;38933;-86
2023/07/19 07:02:09;;;;;;;4.43;2.60;;;;;;;25.79;43.35;98621.28;5115916;27;41028;-87
2023/07/19 07:04:39;;;;;;;2.80;2.40;;;;;;;25.89;43.63;98610.91;5116123;27;42079;-83
2023/07/19 07:07:07;;;;;;;7.23;3.30;;;;;;;26.15;43.35;98621.06;5115952;27;41427;-89
2023/07/19 07:09:36;;;;;;;3.10;2.80;;;;;;;26.27;43.37;98613.19;5115585;27;39558;-88
2023/07/19 07:12:04;;;;;;;3.37;2.50;;;;;;;26.51;42.82;98629.00;5114043;27;41992;-83
2023/07/19 07:14:32;;;;;;;5.10;2.87;;;;;;;26.64;42.23;98626.31;5132849;27;43092;-86
2023/07/19 07:17:00;;;;;;;4.87;2.60;;;;;;;26.80;42.65;98636.00;5132712;27;42088;-86
2023/07/19 07:19:28;;;;;;;4.20;2.40;;;;;;;26.87;41.72;98630.56;5116448;27;39915;-85
2023/07/19 07:21:57;;;;;;;3.77;3.07;;;;;;;27.01;41.84;98635.03;5134021;27;41653;-84
2023/07/19 07:24:25;;;;;;;4.13;2.77;;;;;;;27.18;40.88;98647.19;5116329;27;41674;-87
2023/07/19 07:26:53;;;;;;;3.03;2.73;;;;;;;27.33;40.57;98653.25;5115596;27;41610;-85
2023/07/19 07:29:21;;;;;;;3.73;2.67;;;;;;;27.30;39.76;98642.81;5133706;27;39451;-86
2023/07/19 07:31:48;;;;;;;4.40;2.90;;;;;;;27.47;39.25;98644.06;5115471;27;40788;-84
2023/07/19 07:34:16;;;;;;;3.57;2.73;;;;;;;27.79;39.28;98653.31;5116548;27;41839;-80
2023/07/19 07:36:44;;;;;;;6.40;3.10;;;;;;;28.05;39.05;98644.25;5132016;27;42385;-87
2023/07/19 07:39:13;;;;;;;6.30;2.83;;;;;;;28.38;38.41;98630.56;5133737;27;40053;-88
2023/07/19 07:41:41;;;;;;;3.33;2.83;;;;;;;29.07;37.90;98645.34;5132174;27;41928;-87
2023/07/19 07:44:09;;;;;;;4.57;3.23;;;;;;;29.29;37.12;98663.88;5114416;27;41891;-84
2023/07/19 07:46:37;;;;;;;2.93;2.63;;;;;;;29.36;36.82;98660.25;5132457;27;42120;-85
2023/07/19 07:49:05;;;;;;;4.63;3.10;;;;;;;29.37;36.85;98646.41;5114714;27;38913;-86
2023/07/19 07:51:33;;;;;;;3.30;3.00;;;;;;;29.53;36.68;98650.50;5131039;27;41664;-86
2023/07/19 07:54:00;;;;;;;3.87;2.90;;;;;;;30.28;35.52;98664.94;5114677;27;41851;-81
2023/07/19 07:56:29;;;;;;;3.57;2.53;;;;;;;31.57;34.01;98659.00;5131951;27;42501;-83
2023/07/19 07:58:57;;;;;;;3.57;2.90;;;;;;;33.25;31.46;98671.84;5132854;27;39679;-83
2023/07/19 08:01:25;;;;;;;3.37;2.60;;;;;;;34.54;30.08;98697.31;5131145;27;41478;-85
2023/07/19 08:03:53;;;;;;;3.70;2.90;;;;;;;35.03;29.35;98688.31;5113899;27;41365;-80
2023/07/19 08:06:21;;;;;;;5.27;3.43;;;;;;;34.86;29.46;98677.41;5130785;27;41952;-84
2023/07/19 08:08:49;;;;;;;3.33;3.03;;;;;;;34.79;29.58;98685.00;5114372;27;40413;-90
2023/07/19 08:11:21;;;;;;;4.27;3.00;;;;;;;34.92;29.36;98692.88;5114891;27;42037;-85
2023/07/19 08:13:50;;;;;;;4.50;3.10;;;;;;;35.49;28.50;98675.88;5115505;27;41446;-85
2023/07/19 08:16:18;;;;;;;4.65;3.25;;;;;;;36.63;27.22;98694.66;5131915;27;43151;-84
2023/07/19 08:18:48;;;;;;;3.90;3.17;;;;;;;37.92;25.44;98692.84;5115539;27;39089;-89
2023/07/19 08:21:16;;;;;;;3.42;2.97;;;;;;;39.17;24.17;98709.44;5115322;27;41065;-86
2023/07/19 08:23:44;;;;;;;3.42;3.13;;;;;;;39.89;23.53;98710.66;5115272;27;42000;-85
2023/07/19 08:26:11;;;;;;;3.83;2.70;;;;;;;40.50;22.88;98718.41;5131172;27;42344;-88
2023/07/19 08:28:39;;;;;;;3.42;3.00;;;;;;;40.89;22.26;98721.03;5132366;27;39143;-86
2023/07/19 08:31:09;;;;;;;3.95;2.75;;;;;;;41.07;22.33;98723.00;5115181;27;40879;-84
2023/07/19 08:33:36;;;;;;;7.82;3.28;;;;;;;41.02;22.10;98725.03;5132825;27;42988;-84
2023/07/19 08:36:05;;;;;;;3.80;3.20;;;;;;;40.81;22.24;98705.84;5114983;27;41173;-85
2023/07/19 08:38:33;;;;;;;3.63;2.67;;;;;;;40.69;22.25;98716.50;5131188;27;40034;-91
2023/07/19 08:41:02;;;;;;;3.00;2.70;;;;;;;40.50;22.69;98723.97;5113368;27;41954;-84
2023/07/19 08:43:30;;;;;;;4.15;2.63;;;;;;;40.60;22.59;98704.41;5113774;27;42175;-84
2023/07/19 08:45:58;;;;;;;3.72;2.65;;;;;;;40.85;22.06;98723.56;5131874;27;41298;-88
2023/07/19 08:48:27;;;;;;;2.97;2.42;;;;;;;40.69;21.23;98719.28;5114524;27;38955;-85
2023/07/19 08:50:57;;;;;;;4.38;2.83;;;;;;;40.18;21.69;98724.53;5113030;27;42199;-85
2023/07/19 08:53:26;;;;;;;2.65;2.45;;;;;;;39.30;23.02;98697.72;5130146;27;42663;-86
2023/07/19 08:55:56;;;;;;;3.30;3.08;;;;;;;38.65;23.94;98696.91;5130501;27;42186;-87
2023/07/19 08:58:23;;;;;;;4.25;2.80;;;;;;;37.91;24.06;98672.66;5113554;27;40196;-86
2023/07/19 09:00:52;;;;;;;3.10;2.75;;;;;;;37.44;24.29;98681.19;5114171;27;40342;-89
2023/07/19 09:03:19;;;;;;;3.50;2.53;;;;;;;37.25;24.75;98693.84;5112849;27;42108;-83
2023/07/19 09:05:48;;;;;;;3.60;2.70;;;;;;;37.21;24.38;98690.81;5143075;27;42406;-78
2023/07/19 09:08:16;;;;;;;3.03;2.70;;;;;;;37.27;24.63;98675.06;5122693;27;39888;-83
2023/07/19 09:10:45;;;;;;;3.35;2.85;;;;;;;37.32;24.07;98688.91;5114615;27;42875;-86
2023/07/19 09:13:19;;;;;;;3.65;2.50;;;;;;;37.17;24.85;98681.41;5114633;27;41596;-81
2023/07/19 09:15:48;;;;;;;4.40;2.80;;;;;;;37.16;25.05;98674.22;5129848;27;43183;-87
2023/07/19 09:18:17;;;;;;;3.78;3.13;;;;;;;37.02;24.72;98679.41;5131767;27;40047;-81
2023/07/19 09:20:44;;;;;;;4.70;2.97;;;;;;;36.80;24.25;98667.72;5113953;27;41416;-85
2023/07/19 09:23:17;;;;;;;3.13;2.58;;;;;;;36.71;25.21;98665.78;5114075;27;41648;-83
2023/07/19 09:25:52;;;;;;;3.42;2.70;;;;;;;36.74;25.51;98637.59;5114648;27;42279;-82
2023/07/19 09:28:21;;;;;;;5.35;3.17;;;;;;;36.81;25.20;98655.59;5131781;27;39047;-81
2023/07/19 09:30:57;;;;;;;4.57;3.00;;;;;;;36.65;25.18;98657.44;5130554;27;41715;-84
2023/07/19 09:33:26;;;;;;;4.00;3.08;;;;;;;36.54;25.31;98611.59;5130908;27;42824;-83
2023/07/19 09:35:56;;;;;;;4.40;2.78;;;;;;;37.15;24.62;98655.97;5131548;27;43168;-82
2023/07/19 09:38:26;;;;;;;3.00;2.80;;;;;;;37.67;23.43;98655.81;5134189;27;40938;-84
2023/07/19 09:40:55;;;;;;;3.03;2.75;;;;;;;38.36;23.78;98654.31;5130770;27;41460;-84
2023/07/19 09:43:24;;;;;;;4.18;3.17;;;;;;;38.64;22.83;98650.94;5133224;27;42637;-87
2023/07/19 09:45:52;;;;;;;4.60;2.78;;;;;;;38.40;23.19;98644.34;5116639;27;42369;-87
2023/07/19 09:48:22;;;;;;;3.03;2.83;;;;;;;37.94;22.87;98602.97;5116587;27;41011;-85
2023/07/19 09:50:50;;;;;;;3.10;2.80;;;;;;;38.29;22.92;98639.97;5133153;27;41122;-82
2023/07/19 09:53:23;;;;;;;4.78;2.70;;;;;;;39.00;21.71;98653.56;5133001;27;41678;-85
2023/07/19 09:55:54;;;;;;;5.13;2.83;;;;;;;40.13;20.98;98628.31;5115684;27;41163;-80
2023/07/19 09:58:23;;;;;;;3.20;2.72;;;;;;;41.22;19.51;98646.97;5131253;27;41005;-87
2023/07/19 10:00:51;;;;;;;3.70;2.53;;;;;;;42.02;19.56;98660.72;5134298;27;42517;-82
2023/07/19 10:03:20;;;;;;;2.97;2.75;;;;;;;41.65;19.07;98664.41;5133100;27;41977;-82
2023/07/19 10:05:56;;;;;;;2.65;2.10;;;;;;;40.74;19.58;98615.69;5133144;27;42613;-88
2023/07/19 10:08:24;;;;;;;4.38;2.20;;;;;;;40.20;19.69;98662.06;5116366;27;38965;-86
2023/07/19 10:10:59;;;;;;;2.63;2.42;;;;;;;39.54;20.71;98652.69;5115869;27;40520;-85
2023/07/19 10:13:30;;;;;;;2.80;2.50;;;;;;;39.13;20.48;98639.06;5115899;27;42106;-83
2023/07/19 10:15:57;;;;;;;2.45;2.25;;;;;;;39.03;20.65;98636.38;5130999;27;42306;-83
2023/07/19 10:18:27;;;;;;;3.40;2.08;;;;;;;39.11;20.73;98624.69;5133538;27;40262;-81
2023/07/19 10:21:01;;;;;;;3.15;2.40;;;;;;;39.73;20.21;98629.50;5134032;27;42030;-81
2023/07/19 10:23:30;;;;;;;3.63;2.30;;;;;;;39.66;20.31;98628.19;5132160;27;42927;-88
2023/07/19 10:26:06;;;;;;;2.65;2.42;;;;;;;39.98;20.11;98619.31;5117139;27;41210;-83
2023/07/19 10:28:33;;;;;;;3.30;2.45;;;;;;;40.12;19.64;98615.53;5116703;27;39004;-84
2023/07/19 10:31:02;;;;;;;3.75;2.20;;;;;;;40.19;19.49;98621.56;5116827;27;40789;-86
2023/07/19 10:33:32;;;;;;;3.65;2.30;;;;;;;40.22;19.16;98639.56;5116444;27;43120;-82
2023/07/19 10:36:06;;;;;;;2.10;1.73;;;;;;;40.07;19.26;98640.56;5134185;27;43528;-87
2023/07/19 10:38:34;;;;;;;3.03;2.00;;;;;;;40.26;20.29;98623.16;5117061;27;40088;-85
2023/07/19 10:41:05;;;;;;;4.00;2.03;;;;;;;40.73;17.97;98636.25;5116432;27;40374;-85
2023/07/19 10:43:34;;;;;;;1.85;1.67;;;;;;;41.06;18.48;98631.59;5116738;27;43128;-88
2023/07/19 10:46:04;;;;;;;2.35;1.80;;;;;;;41.40;18.44;98628.63;5116614;27;41443;-86
2023/07/19 10:48:33;;;;;;;3.10;2.05;;;;;;;41.14;17.93;98608.75;5131234;27;40003;-92
2023/07/19 10:51:03;;;;;;;1.95;1.73;;;;;;;40.84;18.29;98621.91;5115046;27;40875;-84
2023/07/19 10:53:40;;;;;;;2.35;1.98;;;;;;;40.62;17.57;98632.75;5114831;27;42982;-81
2023/07/19 10:56:09;;;;;;;3.30;1.85;;;;;;;40.22;18.72;98604.31;5114693;27;41880;-81
2023/07/19 10:58:37;;;;;;;2.85;2.00;;;;;;;40.11;18.46;98635.25;5132857;27;40152;-84
2023/07/19 11:01:05;;;;;;;2.97;2.55;;;;;;;39.89;18.57;98615.53;5114875;27;40773;-86
2023/07/19 11:03:34;;;;;;;2.45;1.83;;;;;;;40.24;18.80;98631.78;5099070;27;20229;-82
2023/07/19 11:06:02;;;;;;;1.92;1.75;;;;;;;40.60;18.08;98626.66;5132174;27;40606;-79
2023/07/19 11:08:32;;;;;;;4.38;1.63;;;;;;;40.98;18.38;98621.19;5131822;27;39722;-82
2023/07/19 11:11:00;;;;;;;3.10;2.00;;;;;;;41.31;18.21;98622.91;5112710;27;40826;-82
2023/07/19 11:13:30;;;;;;;5.22;2.00;;;;;;;40.89;17.76;98624.66;5115210;27;42856;-80
2023/07/19 11:15:59;;;;;;;2.40;2.20;;;;;;;40.58;17.58;98634.47;5114839;27;41180;-81
2023/07/19 11:18:28;;;;;;;2.00;1.80;;;;;;;40.64;17.83;98621.34;5134513;27;40902;-81
2023/07/19 11:20:57;;;;;;;2.42;1.70;;;;;;;40.55;18.49;98624.75;5132681;27;40895;-80
2023/07/19 11:23:25;;;;;;;2.42;1.90;;;;;;;40.56;18.59;98622.81;5132720;27;43762;-80
2023/07/19 11:26:03;;;;;;;2.60;2.08;;;;;;;40.57;18.39;98605.03;5115722;27;41405;-84
2023/07/19 11:28:37;;;;;;;2.75;1.98;;;;;;;40.74;18.82;98610.13;5130194;27;41601;-84
2023/07/19 11:31:05;;;;;;;2.30;1.98;;;;;;;40.73;17.97;98625.97;5129746;27;42640;-81
2023/07/19 11:33:36;;;;;;;3.22;1.77;;;;;;;40.74;18.38;98607.34;5132370;27;42208;-86
2023/07/19 11:36:07;;;;;;;4.32;1.83;;;;;;;40.48;18.18;98634.59;5133404;27;42027;-82
2023/07/19 11:38:37;;;;;;;2.53;1.98;;;;;;;40.51;18.95;98600.69;5115233;27;40314;-84
2023/07/19 11:41:05;;;;;;;3.72;2.17;;;;;;;40.99;18.77;98608.94;5132025;27;42027;-84